sensor_id;sensor_type;location;lat;lon;timestamp;pressure;altitude;pressure_sealevel;temperature;humidity
50867;BME280;36839;51.946;21.002;2023-04-02T00:01:24;99136.31;;;5.78;100.00
50867;BME280;36839;51.946;21.002;2023-04-02T00:04:19;99146.52;;;5.72;100.00
50867;BME280;36839;51.946;21.002;2023-04-02T00:07:33;99144.52;;;5.68;100.00
50867;BME280;36839;51.946;21.002;2023-04-02T00:09:42;99148.12;;;5.63;100.00
50867;BME280;36839;51.946;21.002;2023-04-02T00:12:17;99143.67;;;5.63;100.00
50867;BME280;36839;51.946;21.002;2023-04-02T00:14:51;99147.67;;;5.64;100.00
50867;BME280;36839;51.946;21.002;2023-04-02T00:17:24;99145.98;;;5.64;100.00
50867;BME280;36839;51.946;21.002;2023-04-02T00:20:01;99146.35;;;5.61;100.00
50867;BME280;36839;51.946;21.002;2023-04-02T00:22:31;99152.54;;;5.60;100.00
50867;BME280;36839;51.946;21.002;2023-04-02T00:25:06;99148.55;;;5.61;100.00
50867;BME280;36839;51.946;21.002;2023-04-02T00:27:36;99149.19;;;5.59;100.00
50867;BME280;36839;51.946;21.002;2023-04-02T00:30:02;99149.42;;;5.56;100.00
50867;BME280;36839;51.946;21.002;2023-04-02T00:32:32;99149.33;;;5.57;100.00
50867;BME280;36839;51.946;21.002;2023-04-02T00:35:01;99149.44;;;5.57;100.00
50867;BME280;36839;51.946;21.002;2023-04-02T00:37:41;99151.73;;;5.57;100.00
50867;BME280;36839;51.946;21.002;2023-04-02T00:40:23;99152.55;;;5.57;100.00
50867;BME280;36839;51.946;21.002;2023-04-02T00:42:58;99154.78;;;5.54;100.00
50867;BME280;36839;51.946;21.002;2023-04-02T00:45:30;99156.48;;;5.53;100.00
50867;BME280;36839;51.946;21.002;2023-04-02T00:48:19;99161.63;;;5.52;100.00
50867;BME280;36839;51.946;21.002;2023-04-02T00:50:52;99159.23;;;5.52;100.00
50867;BME280;36839;51.946;21.002;2023-04-02T00:53:28;99160.42;;;5.52;100.00
50867;BME280;36839;51.946;21.002;2023-04-02T00:55:57;99164.74;;;5.51;100.00
50867;BME280;36839;51.946;21.002;2023-04-02T01:00:58;99169.98;;;5.49;100.00
50867;BME280;36839;51.946;21.002;2023-04-02T01:03:36;99170.95;;;5.49;100.00
50867;BME280;36839;51.946;21.002;2023-04-02T01:06:13;99174.80;;;5.49;100.00
50867;BME280;36839;51.946;21.002;2023-04-02T01:08:53;99170.67;;;5.47;100.00
50867;BME280;36839;51.946;21.002;2023-04-02T01:17:45;99171.95;;;5.41;100.00
50867;BME280;36839;51.946;21.002;2023-04-02T01:21:09;99171.91;;;5.39;100.00
50867;BME280;36839;51.946;21.002;2023-04-02T01:24:23;99177.34;;;5.38;100.00
50867;BME280;36839;51.946;21.002;2023-04-02T01:26:58;99169.83;;;5.37;100.00
50867;BME280;36839;51.946;21.002;2023-04-02T01:29:30;99172.24;;;5.36;100.00
50867;BME280;36839;51.946;21.002;2023-04-02T01:32:09;99167.41;;;5.34;100.00
50867;BME280;36839;51.946;21.002;2023-04-02T01:34:40;99173.64;;;5.34;100.00
50867;BME280;36839;51.946;21.002;2023-04-02T01:45:09;99175.56;;;5.27;100.00
50867;BME280;36839;51.946;21.002;2023-04-02T01:47:41;99182.12;;;5.25;100.00
50867;BME280;36839;51.946;21.002;2023-04-02T01:50:26;99179.66;;;5.26;100.00
50867;BME280;36839;51.946;21.002;2023-04-02T01:53:08;99181.63;;;5.25;100.00
50867;BME280;36839;51.946;21.002;2023-04-02T01:56:02;99184.09;;;5.24;100.00
50867;BME280;36839;51.946;21.002;2023-04-02T01:58:32;99187.25;;;5.23;100.00
50867;BME280;36839;51.946;21.002;2023-04-02T02:01:27;99189.16;;;5.23;100.00
50867;BME280;36839;51.946;21.002;2023-04-02T02:03:58;99192.84;;;5.23;100.00
50867;BME280;36839;51.946;21.002;2023-04-02T02:06:26;99200.06;;;5.23;100.00
50867;BME280;36839;51.946;21.002;2023-04-02T02:09:04;99200.39;;;5.22;100.00
50867;BME280;36839;51.946;21.002;2023-04-02T02:11:40;99204.23;;;5.23;100.00
50867;BME280;36839;51.946;21.002;2023-04-02T02:14:18;99202.69;;;5.24;100.00
50867;BME280;36839;51.946;21.002;2023-04-02T02:16:47;99207.35;;;5.24;100.00
50867;BME280;36839;51.946;21.002;2023-04-02T02:19:37;99211.13;;;5.23;100.00
50867;BME280;36839;51.946;21.002;2023-04-02T02:22:36;99218.69;;;5.25;100.00
50867;BME280;36839;51.946;21.002;2023-04-02T02:25:20;99219.90;;;5.26;100.00
50867;BME280;36839;51.946;21.002;2023-04-02T02:28:01;99217.55;;;5.27;100.00
50867;BME280;36839;51.946;21.002;2023-04-02T02:33:25;99231.20;;;5.30;100.00
50867;BME280;36839;51.946;21.002;2023-04-02T02:38:50;99234.20;;;5.28;100.00
50867;BME280;36839;51.946;21.002;2023-04-02T02:44:32;99241.77;;;5.29;100.00
50867;BME280;36839;51.946;21.002;2023-04-02T02:46:51;99246.42;;;5.28;100.00
50867;BME280;36839;51.946;21.002;2023-04-02T02:49:35;99248.92;;;5.27;100.00
50867;BME280;36839;51.946;21.002;2023-04-02T02:52:11;99248.30;;;5.24;100.00
50867;BME280;36839;51.946;21.002;2023-04-02T02:54:43;99251.80;;;5.18;100.00
50867;BME280;36839;51.946;21.002;2023-04-02T02:57:12;99257.96;;;5.16;100.00
50867;BME280;36839;51.946;21.002;2023-04-02T02:59:53;99263.90;;;5.12;100.00
50867;BME280;36839;51.946;21.002;2023-04-02T03:02:22;99265.45;;;5.09;100.00
50867;BME280;36839;51.946;21.002;2023-04-02T03:04:54;99272.13;;;5.10;100.00
50867;BME280;36839;51.946;21.002;2023-04-02T03:07:24;99267.34;;;5.08;100.00
50867;BME280;36839;51.946;21.002;2023-04-02T03:24:35;99279.85;;;5.01;100.00
50867;BME280;36839;51.946;21.002;2023-04-02T03:27:45;99286.41;;;5.00;100.00
50867;BME280;36839;51.946;21.002;2023-04-02T03:33:02;99295.63;;;4.96;100.00
50867;BME280;36839;51.946;21.002;2023-04-02T03:38:39;99297.93;;;4.86;100.00
50867;BME280;36839;51.946;21.002;2023-04-02T03:41:37;99298.23;;;4.81;100.00
50867;BME280;36839;51.946;21.002;2023-04-02T03:44:43;99297.71;;;4.78;100.00
50867;BME280;36839;51.946;21.002;2023-04-02T03:47:17;99299.13;;;4.76;100.00
50867;BME280;36839;51.946;21.002;2023-04-02T03:49:56;99308.16;;;4.74;100.00
50867;BME280;36839;51.946;21.002;2023-04-02T03:52:27;99311.80;;;4.75;100.00
50867;BME280;36839;51.946;21.002;2023-04-02T03:54:55;99316.52;;;4.73;100.00
50867;BME280;36839;51.946;21.002;2023-04-02T03:57:35;99323.89;;;4.72;100.00
50867;BME280;36839;51.946;21.002;2023-04-02T04:02:51;99327.40;;;4.73;100.00
50867;BME280;36839;51.946;21.002;2023-04-02T04:05:33;99334.47;;;4.73;100.00
50867;BME280;36839;51.946;21.002;2023-04-02T04:08:13;99339.51;;;4.69;100.00
50867;BME280;36839;51.946;21.002;2023-04-02T04:10:42;99340.30;;;4.67;100.00
50867;BME280;36839;51.946;21.002;2023-04-02T04:13:21;99342.05;;;4.64;100.00
50867;BME280;36839;51.946;21.002;2023-04-02T04:16:09;99348.31;;;4.61;100.00
50867;BME280;36839;51.946;21.002;2023-04-02T04:19:09;99347.96;;;4.59;100.00
50867;BME280;36839;51.946;21.002;2023-04-02T04:21:42;99354.63;;;4.58;100.00
50867;BME280;36839;51.946;21.002;2023-04-02T04:24:22;99358.51;;;4.58;100.00
50867;BME280;36839;51.946;21.002;2023-04-02T04:32:38;99365.80;;;4.60;100.00
50867;BME280;36839;51.946;21.002;2023-04-02T04:35:21;99364.50;;;4.60;100.00
50867;BME280;36839;51.946;21.002;2023-04-02T04:38:20;99365.65;;;4.61;100.00
50867;BME280;36839;51.946;21.002;2023-04-02T04:40:54;99370.08;;;4.64;100.00
50867;BME280;36839;51.946;21.002;2023-04-02T04:43:45;99372.31;;;4.64;100.00
50867;BME280;36839;51.946;21.002;2023-04-02T04:49:34;99377.05;;;4.66;100.00
50867;BME280;36839;51.946;21.002;2023-04-02T04:52:25;99382.53;;;4.67;100.00
50867;BME280;36839;51.946;21.002;2023-04-02T04:55:14;99383.86;;;4.68;100.00
50867;BME280;36839;51.946;21.002;2023-04-02T04:57:55;99386.33;;;4.69;100.00
50867;BME280;36839;51.946;21.002;2023-04-02T05:00:53;99390.52;;;4.66;100.00
50867;BME280;36839;51.946;21.002;2023-04-02T05:03:36;99393.38;;;4.69;100.00
50867;BME280;36839;51.946;21.002;2023-04-02T05:09:05;99399.36;;;4.66;100.00
50867;BME280;36839;51.946;21.002;2023-04-02T05:11:43;99399.97;;;4.66;100.00
50867;BME280;36839;51.946;21.002;2023-04-02T05:14:34;99399.33;;;4.64;100.00
50867;BME280;36839;51.946;21.002;2023-04-02T05:17:09;99400.82;;;4.65;100.00
50867;BME280;36839;51.946;21.002;2023-04-02T05:19:50;99402.75;;;4.62;100.00
50867;BME280;36839;51.946;21.002;2023-04-02T05:22:54;99404.80;;;4.60;100.00
50867;BME280;36839;51.946;21.002;2023-04-02T05:25:29;99413.05;;;4.60;100.00
50867;BME280;36839;51.946;21.002;2023-04-02T05:28:17;99417.89;;;4.62;100.00
50867;BME280;36839;51.946;21.002;2023-04-02T05:31:14;99422.11;;;4.63;100.00
50867;BME280;36839;51.946;21.002;2023-04-02T05:33:53;99424.23;;;4.62;100.00
50867;BME280;36839;51.946;21.002;2023-04-02T05:36:26;99433.27;;;4.63;100.00
50867;BME280;36839;51.946;21.002;2023-04-02T05:38:58;99431.39;;;4.60;100.00
50867;BME280;36839;51.946;21.002;2023-04-02T05:41:44;99437.85;;;4.61;100.00
50867;BME280;36839;51.946;21.002;2023-04-02T05:44:23;99444.91;;;4.62;100.00
50867;BME280;36839;51.946;21.002;2023-04-02T05:49:44;99452.71;;;4.59;100.00
50867;BME280;36839;51.946;21.002;2023-04-02T05:52:19;99455.55;;;4.60;100.00
50867;BME280;36839;51.946;21.002;2023-04-02T05:57:43;99470.29;;;4.56;100.00
50867;BME280;36839;51.946;21.002;2023-04-02T06:00:17;99471.37;;;4.56;100.00
50867;BME280;36839;51.946;21.002;2023-04-02T06:03:05;99479.55;;;4.48;100.00
50867;BME280;36839;51.946;21.002;2023-04-02T06:05:41;99483.85;;;4.41;100.00
50867;BME280;36839;51.946;21.002;2023-04-02T06:08:19;99488.09;;;4.33;100.00
50867;BME280;36839;51.946;21.002;2023-04-02T06:11:16;99491.80;;;4.28;100.00
50867;BME280;36839;51.946;21.002;2023-04-02T06:13:45;99495.93;;;4.24;100.00
50867;BME280;36839;51.946;21.002;2023-04-02T06:16:12;99496.00;;;4.22;100.00
50867;BME280;36839;51.946;21.002;2023-04-02T06:18:43;99500.33;;;4.19;100.00
50867;BME280;36839;51.946;21.002;2023-04-02T06:21:17;99504.09;;;4.13;100.00
50867;BME280;36839;51.946;21.002;2023-04-02T06:23:52;99508.60;;;4.11;100.00
50867;BME280;36839;51.946;21.002;2023-04-02T06:26:42;99507.43;;;4.10;100.00
50867;BME280;36839;51.946;21.002;2023-04-02T06:29:36;99506.80;;;4.08;100.00
50867;BME280;36839;51.946;21.002;2023-04-02T06:32:11;99509.96;;;4.06;100.00
50867;BME280;36839;51.946;21.002;2023-04-02T06:34:41;99509.91;;;4.02;100.00
50867;BME280;36839;51.946;21.002;2023-04-02T06:39:49;99518.40;;;4.09;100.00
50867;BME280;36839;51.946;21.002;2023-04-02T06:42:23;99522.02;;;4.10;100.00
50867;BME280;36839;51.946;21.002;2023-04-02T06:44:53;99523.50;;;4.13;100.00
50867;BME280;36839;51.946;21.002;2023-04-02T06:47:38;99529.23;;;4.18;100.00
50867;BME280;36839;51.946;21.002;2023-04-02T06:50:31;99530.65;;;4.22;100.00
50867;BME280;36839;51.946;21.002;2023-04-02T06:53:05;99531.58;;;4.25;100.00
50867;BME280;36839;51.946;21.002;2023-04-02T06:58:47;99535.67;;;4.18;100.00
50867;BME280;36839;51.946;21.002;2023-04-02T07:01:18;99540.76;;;4.09;100.00
50867;BME280;36839;51.946;21.002;2023-04-02T07:03:45;99545.13;;;4.03;100.00
50867;BME280;36839;51.946;21.002;2023-04-02T07:06:16;99552.80;;;3.98;100.00
50867;BME280;36839;51.946;21.002;2023-04-02T07:08:45;99550.90;;;3.94;100.00
50867;BME280;36839;51.946;21.002;2023-04-02T07:11:16;99550.33;;;3.92;100.00
50867;BME280;36839;51.946;21.002;2023-04-02T07:13:44;99556.54;;;3.94;100.00
50867;BME280;36839;51.946;21.002;2023-04-02T07:16:24;99554.86;;;3.98;100.00
50867;BME280;36839;51.946;21.002;2023-04-02T07:18:59;99560.44;;;4.04;100.00
50867;BME280;36839;51.946;21.002;2023-04-02T07:21:36;99558.81;;;4.05;100.00
50867;BME280;36839;51.946;21.002;2023-04-02T07:24:06;99561.52;;;4.06;100.00
50867;BME280;36839;51.946;21.002;2023-04-02T07:26:34;99566.63;;;4.05;100.00
50867;BME280;36839;51.946;21.002;2023-04-02T07:29:06;99575.23;;;4.00;100.00
50867;BME280;36839;51.946;21.002;2023-04-02T07:31:33;99580.80;;;3.97;100.00
50867;BME280;36839;51.946;21.002;2023-04-02T07:34:01;99583.81;;;3.98;100.00
50867;BME280;36839;51.946;21.002;2023-04-02T07:36:29;99582.69;;;3.98;100.00
50867;BME280;36839;51.946;21.002;2023-04-02T07:38:56;99583.06;;;3.98;100.00
50867;BME280;36839;51.946;21.002;2023-04-02T07:41:32;99587.36;;;3.97;100.00
50867;BME280;36839;51.946;21.002;2023-04-02T07:43:58;99592.20;;;3.97;100.00
50867;BME280;36839;51.946;21.002;2023-04-02T07:46:33;99598.87;;;3.94;100.00
50867;BME280;36839;51.946;21.002;2023-04-02T07:49:02;99602.18;;;3.92;100.00
50867;BME280;36839;51.946;21.002;2023-04-02T07:51:29;99605.93;;;3.79;100.00
50867;BME280;36839;51.946;21.002;2023-04-02T07:53:58;99610.36;;;3.71;100.00
50867;BME280;36839;51.946;21.002;2023-04-02T07:56:29;99619.39;;;3.68;100.00
50867;BME280;36839;51.946;21.002;2023-04-02T07:58:56;99631.34;;;3.69;100.00
50867;BME280;36839;51.946;21.002;2023-04-02T08:01:25;99646.23;;;3.68;100.00
50867;BME280;36839;51.946;21.002;2023-04-02T08:03:53;99652.23;;;3.68;100.00
50867;BME280;36839;51.946;21.002;2023-04-02T08:06:24;99648.08;;;3.62;100.00
50867;BME280;36839;51.946;21.002;2023-04-02T08:08:51;99644.31;;;3.65;100.00
50867;BME280;36839;51.946;21.002;2023-04-02T08:11:19;99643.59;;;3.67;100.00
50867;BME280;36839;51.946;21.002;2023-04-02T08:13:47;99647.35;;;3.69;100.00
50867;BME280;36839;51.946;21.002;2023-04-02T08:16:15;99652.05;;;3.69;100.00
50867;BME280;36839;51.946;21.002;2023-04-02T08:18:43;99662.41;;;3.73;100.00
50867;BME280;36839;51.946;21.002;2023-04-02T08:21:13;99662.20;;;3.71;100.00
50867;BME280;36839;51.946;21.002;2023-04-02T08:23:51;99669.71;;;3.65;100.00
50867;BME280;36839;51.946;21.002;2023-04-02T08:26:24;99675.48;;;3.62;100.00
50867;BME280;36839;51.946;21.002;2023-04-02T08:28:52;99678.77;;;3.63;100.00
50867;BME280;36839;51.946;21.002;2023-04-02T08:31:19;99684.73;;;3.68;100.00
50867;BME280;36839;51.946;21.002;2023-04-02T08:33:48;99687.09;;;3.72;100.00
50867;BME280;36839;51.946;21.002;2023-04-02T08:36:32;99690.64;;;3.75;100.00
50867;BME280;36839;51.946;21.002;2023-04-02T08:39:01;99689.10;;;3.75;100.00
50867;BME280;36839;51.946;21.002;2023-04-02T08:41:37;99692.27;;;3.75;100.00
50867;BME280;36839;51.946;21.002;2023-04-02T08:47:07;99692.01;;;3.72;100.00
50867;BME280;36839;51.946;21.002;2023-04-02T08:49:43;99691.39;;;3.72;100.00
50867;BME280;36839;51.946;21.002;2023-04-02T08:52:21;99695.91;;;3.69;100.00
50867;BME280;36839;51.946;21.002;2023-04-02T08:54:50;99697.34;;;3.69;100.00
50867;BME280;36839;51.946;21.002;2023-04-02T08:57:46;99701.55;;;3.74;100.00
50867;BME280;36839;51.946;21.002;2023-04-02T09:00:38;99700.17;;;3.77;100.00
50867;BME280;36839;51.946;21.002;2023-04-02T09:03:18;99696.92;;;3.80;100.00
50867;BME280;36839;51.946;21.002;2023-04-02T09:05:50;99701.92;;;3.79;100.00
50867;BME280;36839;51.946;21.002;2023-04-02T09:08:23;99699.54;;;3.85;100.00
50867;BME280;36839;51.946;21.002;2023-04-02T09:13:57;99708.58;;;3.90;100.00
50867;BME280;36839;51.946;21.002;2023-04-02T09:16:37;99709.52;;;3.96;100.00
50867;BME280;36839;51.946;21.002;2023-04-02T09:19:21;99716.61;;;3.93;100.00
50867;BME280;36839;51.946;21.002;2023-04-02T09:22:06;99723.84;;;3.89;100.00
50867;BME280;36839;51.946;21.002;2023-04-02T09:24:35;99726.79;;;3.82;100.00
50867;BME280;36839;51.946;21.002;2023-04-02T09:27:16;99723.23;;;3.86;100.00
50867;BME280;36839;51.946;21.002;2023-04-02T09:29:45;99729.14;;;3.84;100.00
50867;BME280;36839;51.946;21.002;2023-04-02T09:35:14;99737.52;;;3.95;100.00
50867;BME280;36839;51.946;21.002;2023-04-02T09:37:45;99737.16;;;3.98;100.00
50867;BME280;36839;51.946;21.002;2023-04-02T09:40:27;99735.35;;;4.03;100.00
50867;BME280;36839;51.946;21.002;2023-04-02T09:43:11;99742.84;;;4.03;100.00
50867;BME280;36839;51.946;21.002;2023-04-02T09:45:41;99748.58;;;4.03;100.00
50867;BME280;36839;51.946;21.002;2023-04-02T09:48:42;99748.28;;;4.02;100.00
50867;BME280;36839;51.946;21.002;2023-04-02T09:51:17;99751.00;;;4.04;100.00
50867;BME280;36839;51.946;21.002;2023-04-02T09:56:36;99752.86;;;4.09;100.00
50867;BME280;36839;51.946;21.002;2023-04-02T09:59:32;99759.13;;;4.10;100.00
50867;BME280;36839;51.946;21.002;2023-04-02T10:02:00;99759.23;;;4.10;100.00
50867;BME280;36839;51.946;21.002;2023-04-02T10:04:42;99757.92;;;4.10;100.00
50867;BME280;36839;51.946;21.002;2023-04-02T10:07:41;99764.29;;;4.11;100.00
50867;BME280;36839;51.946;21.002;2023-04-02T10:10:32;99767.51;;;4.21;100.00
50867;BME280;36839;51.946;21.002;2023-04-02T10:13:32;99774.56;;;4.16;100.00
50867;BME280;36839;51.946;21.002;2023-04-02T10:16:32;99775.91;;;4.10;100.00
50867;BME280;36839;51.946;21.002;2023-04-02T10:19:09;99781.23;;;4.04;100.00
50867;BME280;36839;51.946;21.002;2023-04-02T10:21:42;99779.05;;;3.99;100.00
50867;BME280;36839;51.946;21.002;2023-04-02T10:24:18;99784.77;;;3.94;100.00
50867;BME280;36839;51.946;21.002;2023-04-02T10:32:05;99800.77;;;3.93;100.00
50867;BME280;36839;51.946;21.002;2023-04-02T10:37:47;99817.34;;;3.90;100.00
50867;BME280;36839;51.946;21.002;2023-04-02T10:40:59;99818.98;;;3.85;100.00
50867;BME280;36839;51.946;21.002;2023-04-02T10:44:03;99821.61;;;3.86;100.00
50867;BME280;36839;51.946;21.002;2023-04-02T10:46:47;99826.19;;;3.89;100.00
50867;BME280;36839;51.946;21.002;2023-04-02T10:49:47;99825.85;;;3.96;100.00
50867;BME280;36839;51.946;21.002;2023-04-02T10:52:25;99819.38;;;3.95;100.00
50867;BME280;36839;51.946;21.002;2023-04-02T10:54:58;99818.70;;;3.98;100.00
50867;BME280;36839;51.946;21.002;2023-04-02T10:57:41;99819.85;;;3.98;100.00
50867;BME280;36839;51.946;21.002;2023-04-02T11:03:06;99835.16;;;3.94;100.00
50867;BME280;36839;51.946;21.002;2023-04-02T11:05:52;99840.92;;;3.93;100.00
50867;BME280;36839;51.946;21.002;2023-04-02T11:16:42;99860.15;;;3.82;100.00
50867;BME280;36839;51.946;21.002;2023-04-02T11:19:20;99864.60;;;3.76;100.00
50867;BME280;36839;51.946;21.002;2023-04-02T11:25:02;99882.45;;;3.71;100.00
50867;BME280;36839;51.946;21.002;2023-04-02T11:27:33;99881.41;;;3.73;100.00
50867;BME280;36839;51.946;21.002;2023-04-02T11:30:23;99888.11;;;3.73;100.00
50867;BME280;36839;51.946;21.002;2023-04-02T11:32:52;99891.63;;;3.67;100.00
50867;BME280;36839;51.946;21.002;2023-04-02T11:40:59;99899.63;;;3.64;100.00
50867;BME280;36839;51.946;21.002;2023-04-02T11:52:27;99911.27;;;3.59;100.00
50867;BME280;36839;51.946;21.002;2023-04-02T11:55:21;99915.32;;;3.56;100.00
50867;BME280;36839;51.946;21.002;2023-04-02T12:09:52;99934.99;;;3.55;100.00
50867;BME280;36839;51.946;21.002;2023-04-02T12:12:50;99942.92;;;3.51;100.00
50867;BME280;36839;51.946;21.002;2023-04-02T12:18:12;99940.63;;;3.45;100.00
50867;BME280;36839;51.946;21.002;2023-04-02T12:20:39;99951.33;;;3.53;100.00
50867;BME280;36839;51.946;21.002;2023-04-02T12:23:17;99960.02;;;3.50;100.00
50867;BME280;36839;51.946;21.002;2023-04-02T12:25:54;99959.92;;;3.42;100.00
50867;BME280;36839;51.946;21.002;2023-04-02T12:28:37;99964.60;;;3.41;100.00
50867;BME280;36839;51.946;21.002;2023-04-02T12:31:27;99962.98;;;3.41;100.00
50867;BME280;36839;51.946;21.002;2023-04-02T12:33:56;99963.62;;;3.38;100.00
50867;BME280;36839;51.946;21.002;2023-04-02T12:36:28;99971.92;;;3.36;100.00
50867;BME280;36839;51.946;21.002;2023-04-02T12:39:15;99972.27;;;3.36;100.00
50867;BME280;36839;51.946;21.002;2023-04-02T12:41:47;99975.49;;;3.42;100.00
50867;BME280;36839;51.946;21.002;2023-04-02T12:44:22;99973.44;;;3.55;100.00
50867;BME280;36839;51.946;21.002;2023-04-02T12:46:53;99974.57;;;3.64;100.00
50867;BME280;36839;51.946;21.002;2023-04-02T12:49:32;99976.51;;;3.73;100.00
50867;BME280;36839;51.946;21.002;2023-04-02T12:52:15;99980.27;;;3.77;100.00
50867;BME280;36839;51.946;21.002;2023-04-02T12:54:48;99979.46;;;3.81;100.00
50867;BME280;36839;51.946;21.002;2023-04-02T12:57:30;99987.14;;;3.80;100.00
50867;BME280;36839;51.946;21.002;2023-04-02T12:59:58;99989.08;;;3.79;100.00
50867;BME280;36839;51.946;21.002;2023-04-02T13:02:41;99993.86;;;3.77;100.00
50867;BME280;36839;51.946;21.002;2023-04-02T13:05:12;99985.74;;;3.83;100.00
50867;BME280;36839;51.946;21.002;2023-04-02T13:07:39;99990.16;;;3.87;100.00
50867;BME280;36839;51.946;21.002;2023-04-02T13:10:26;99997.33;;;3.81;100.00
50867;BME280;36839;51.946;21.002;2023-04-02T13:13:00;99998.11;;;3.87;100.00
50867;BME280;36839;51.946;21.002;2023-04-02T13:15:33;99999.94;;;3.84;100.00
50867;BME280;36839;51.946;21.002;2023-04-02T13:18:21;100005.05;;;3.78;100.00
50867;BME280;36839;51.946;21.002;2023-04-02T13:21:06;99994.36;;;3.70;100.00
50867;BME280;36839;51.946;21.002;2023-04-02T13:23:51;100003.09;;;3.67;100.00
50867;BME280;36839;51.946;21.002;2023-04-02T13:26:27;100010.00;;;3.70;100.00
50867;BME280;36839;51.946;21.002;2023-04-02T13:29:26;100018.95;;;3.75;100.00
50867;BME280;36839;51.946;21.002;2023-04-02T13:32:15;100021.14;;;3.73;100.00
50867;BME280;36839;51.946;21.002;2023-04-02T13:34:46;100025.15;;;3.74;100.00
50867;BME280;36839;51.946;21.002;2023-04-02T13:37:26;100019.94;;;3.71;100.00
50867;BME280;36839;51.946;21.002;2023-04-02T13:39:59;100032.10;;;3.80;100.00
50867;BME280;36839;51.946;21.002;2023-04-02T13:42:29;100033.14;;;3.86;100.00
50867;BME280;36839;51.946;21.002;2023-04-02T13:45:02;100026.09;;;4.00;100.00
50867;BME280;36839;51.946;21.002;2023-04-02T13:47:30;100029.85;;;4.08;100.00
50867;BME280;36839;51.946;21.002;2023-04-02T13:49:58;100028.87;;;4.14;100.00
50867;BME280;36839;51.946;21.002;2023-04-02T13:52:28;100030.87;;;4.19;100.00
50867;BME280;36839;51.946;21.002;2023-04-02T13:54:56;100031.05;;;4.23;100.00
50867;BME280;36839;51.946;21.002;2023-04-02T13:57:33;100037.63;;;4.23;100.00
50867;BME280;36839;51.946;21.002;2023-04-02T14:00:00;100030.75;;;4.18;100.00
50867;BME280;36839;51.946;21.002;2023-04-02T14:02:29;100032.73;;;4.09;100.00
50867;BME280;36839;51.946;21.002;2023-04-02T14:05:14;100034.53;;;4.07;100.00
50867;BME280;36839;51.946;21.002;2023-04-02T14:13:39;100046.79;;;3.86;100.00
50867;BME280;36839;51.946;21.002;2023-04-02T14:16:54;100046.52;;;3.91;100.00
50867;BME280;36839;51.946;21.002;2023-04-02T14:19:50;100060.80;;;3.93;100.00
50867;BME280;36839;51.946;21.002;2023-04-02T14:25:25;100063.40;;;3.80;100.00
50867;BME280;36839;51.946;21.002;2023-04-02T14:31:33;100069.11;;;3.57;100.00
50867;BME280;36839;51.946;21.002;2023-04-02T14:34:29;100072.95;;;3.62;100.00
50867;BME280;36839;51.946;21.002;2023-04-02T14:37:16;100082.30;;;3.64;100.00
50867;BME280;36839;51.946;21.002;2023-04-02T14:40:21;100082.44;;;3.64;100.00
50867;BME280;36839;51.946;21.002;2023-04-02T14:43:25;100083.31;;;3.60;100.00
50867;BME280;36839;51.946;21.002;2023-04-02T14:46:06;100085.58;;;3.62;100.00
50867;BME280;36839;51.946;21.002;2023-04-02T14:49:19;100089.64;;;3.65;100.00
50867;BME280;36839;51.946;21.002;2023-04-02T14:52:09;100090.80;;;3.66;100.00
50867;BME280;36839;51.946;21.002;2023-04-02T14:54:58;100091.21;;;3.61;100.00
50867;BME280;36839;51.946;21.002;2023-04-02T14:57:35;100098.41;;;3.55;100.00
50867;BME280;36839;51.946;21.002;2023-04-02T15:03:29;100108.09;;;3.47;100.00
50867;BME280;36839;51.946;21.002;2023-04-02T15:06:11;100115.27;;;3.42;100.00
50867;BME280;36839;51.946;21.002;2023-04-02T15:09:33;100116.58;;;3.30;100.00
50867;BME280;36839;51.946;21.002;2023-04-02T15:11:51;100122.31;;;3.18;100.00
50867;BME280;36839;51.946;21.002;2023-04-02T15:14:27;100127.96;;;3.10;100.00
50867;BME280;36839;51.946;21.002;2023-04-02T15:17:01;100128.32;;;3.06;100.00
50867;BME280;36839;51.946;21.002;2023-04-02T15:19:29;100129.23;;;3.02;100.00
50867;BME280;36839;51.946;21.002;2023-04-02T15:25:32;100139.46;;;2.94;100.00
50867;BME280;36839;51.946;21.002;2023-04-02T15:31:05;100153.39;;;2.88;100.00
50867;BME280;36839;51.946;21.002;2023-04-02T15:55:58;100184.42;;;2.60;100.00
50867;BME280;36839;51.946;21.002;2023-04-02T16:01:11;100193.91;;;2.60;100.00
50867;BME280;36839;51.946;21.002;2023-04-02T16:12:43;100220.60;;;2.41;100.00
50867;BME280;36839;51.946;21.002;2023-04-02T16:15:20;100216.60;;;2.37;100.00
50867;BME280;36839;51.946;21.002;2023-04-02T16:18:08;100222.60;;;2.37;100.00
50867;BME280;36839;51.946;21.002;2023-04-02T16:20:45;100223.05;;;2.34;100.00
50867;BME280;36839;51.946;21.002;2023-04-02T16:23:28;100224.39;;;2.29;100.00
50867;BME280;36839;51.946;21.002;2023-04-02T16:32:02;100247.75;;;2.16;100.00
50867;BME280;36839;51.946;21.002;2023-04-02T16:34:54;100251.33;;;2.09;100.00
50867;BME280;36839;51.946;21.002;2023-04-02T16:37:39;100252.33;;;2.06;100.00
50867;BME280;36839;51.946;21.002;2023-04-02T16:40:40;100257.48;;;1.98;100.00
50867;BME280;36839;51.946;21.002;2023-04-02T16:50:00;100271.98;;;1.72;100.00
50867;BME280;36839;51.946;21.002;2023-04-02T16:52:37;100272.45;;;1.66;100.00
50867;BME280;36839;51.946;21.002;2023-04-02T16:55:45;100278.86;;;1.65;100.00
50867;BME280;36839;51.946;21.002;2023-04-02T16:58:41;100281.91;;;1.59;100.00
50867;BME280;36839;51.946;21.002;2023-04-02T17:09:50;100300.51;;;1.32;100.00
50867;BME280;36839;51.946;21.002;2023-04-02T17:15:32;100307.48;;;1.19;100.00
50867;BME280;36839;51.946;21.002;2023-04-02T17:18:19;100309.15;;;1.08;100.00
50867;BME280;36839;51.946;21.002;2023-04-02T17:20:51;100314.23;;;1.02;100.00
50867;BME280;36839;51.946;21.002;2023-04-02T17:24:18;100320.79;;;1.00;100.00